Time;durP1;ratioP1;P1;durP2;ratioP2;P2;SDS_P1;SDS_P2;PMS_P1;PMS_P2;Temp;Humidity;BMP_temperature;BMP_pressure;BME280_temperature;BME280_humidity;BME280_pressure;Samples;Min_cycle;Max_cycle;Signal;HPM_P1;HPM_P2
2022/03/22 00:01:02;;;;;;;;;19.80;18.40;;;;;8.50;56.99;101402.75;5070011;28;9750;-63
2022/03/22 00:03:30;;;;;;;;;19.40;19.40;;;;;8.48;57.01;101402.81;5075080;28;8832;-62
2022/03/22 00:05:58;;;;;;;;;17.20;17.20;;;;;8.49;56.24;101403.66;5075153;28;8856;-63
2022/03/22 00:08:26;;;;;;;;;21.00;16.80;;;;;8.46;56.90;101401.16;5075346;28;8852;-62
2022/03/22 00:10:54;;;;;;;;;16.00;15.20;;;;;8.42;57.20;101395.16;5061639;28;8830;-64
2022/03/22 00:13:21;;;;;;;;;16.60;14.80;;;;;8.42;56.83;101395.16;5053625;28;9618;-63
2022/03/22 00:15:50;;;;;;;;;16.00;15.00;;;;;8.42;57.01;101403.09;5055756;28;8838;-63
2022/03/22 00:18:38;;;;;;;;;20.40;19.00;;;;;8.42;57.22;101408.41;5055117;28;8858;-63
2022/03/22 00:21:07;;;;;;;;;20.00;18.00;;;;;8.40;56.81;101401.44;5069582;28;8824;-63
2022/03/22 00:23:34;;;;;;;;;18.20;16.80;;;;;8.39;56.94;101408.56;5075065;28;8982;-62
2022/03/22 00:26:03;;;;;;;;;17.60;15.60;;;;;8.38;57.10;101406.81;5075187;28;8863;-63
2022/03/22 00:28:31;;;;;;;;;16.00;16.00;;;;;8.36;57.08;101408.69;5073879;28;9679;-63
2022/03/22 00:31:00;;;;;;;;;17.80;17.60;;;;;8.31;57.13;101413.38;5070990;28;8967;-63
2022/03/22 00:33:28;;;;;;;;;18.60;17.20;;;;;8.24;57.21;101408.41;5074543;28;8840;-62
2022/03/22 00:35:56;;;;;;;;;17.80;16.40;;;;;8.19;57.18;101413.06;5074667;28;8848;-64
2022/03/22 00:38:23;;;;;;;;;18.20;16.00;;;;;8.15;57.31;101409.66;5075440;28;8864;-63
2022/03/22 00:40:51;;;;;;;;;16.00;15.40;;;;;8.12;57.21;101408.94;5062204;28;8920;-63
2022/03/22 00:43:19;;;;;;;;;19.40;17.20;;;;;8.09;57.57;101409.09;5054319;28;8959;-63
2022/03/22 00:45:47;;;;;;;;;21.60;20.60;;;;;8.05;57.40;101408.38;5052872;28;8872;-63
2022/03/22 00:48:15;;;;;;;;;12.80;11.80;;;;;8.03;57.13;101415.56;5054141;28;8846;-63
2022/03/22 00:50:44;;;;;;;;;18.40;12.00;;;;;8.00;57.34;101404.22;5068463;28;8840;-63
2022/03/22 00:53:12;;;;;;;;;15.60;14.40;;;;;7.98;57.18;101403.44;5078834;28;8848;-63
2022/03/22 00:55:40;;;;;;;;;20.80;18.60;;;;;7.94;57.54;101405.38;5078554;28;8817;-62
2022/03/22 00:58:08;;;;;;;;;13.00;13.00;;;;;7.91;57.49;101402.84;5077296;28;8941;-64
2022/03/22 01:00:36;;;;;;;;;16.20;12.60;;;;;7.89;57.48;101402.06;5077275;28;8868;-63
2022/03/22 01:03:04;;;;;;;;;15.20;14.40;;;;;7.87;57.59;101400.38;5078286;28;8848;-63
2022/03/22 01:05:34;;;;;;;;;15.00;14.60;;;;;7.87;57.65;101405.69;5077283;28;8832;-63
2022/03/22 01:08:02;;;;;;;;;15.00;13.00;;;;;7.89;57.53;101415.31;5076780;28;8836;-63
2022/03/22 01:10:30;;;;;;;;;18.00;17.20;;;;;7.83;57.37;101410.28;5067701;28;8865;-62
2022/03/22 01:12:58;;;;;;;;;20.60;19.40;;;;;7.72;57.93;101409.91;5056283;28;8957;-63
2022/03/22 01:15:25;;;;;;;;;16.80;15.40;;;;;7.65;58.00;101407.59;5056685;28;8853;-63
2022/03/22 01:17:54;;;;;;;;;15.40;13.80;;;;;7.62;58.27;101407.72;5056584;28;8866;-63
2022/03/22 01:20:24;;;;;;;;;15.60;12.40;;;;;7.62;58.22;101398.91;5064274;28;8836;-64
2022/03/22 01:22:52;;;;;;;;;19.80;17.00;;;;;7.61;57.97;101400.72;5078404;28;8836;-63
2022/03/22 01:25:20;;;;;;;;;12.80;12.40;;;;;7.60;58.00;101408.72;5077819;28;8844;-62
2022/03/22 01:27:48;;;;;;;;;15.40;15.00;;;;;7.60;58.02;101398.13;5077951;28;8978;-62
2022/03/22 01:30:16;;;;;;;;;10.00;10.00;;;;;7.59;57.72;101396.41;5071869;28;8849;-62
2022/03/22 01:32:44;;;;;;;;;17.80;15.20;;;;;7.65;57.86;101401.44;5058356;28;8932;-62
2022/03/22 01:35:15;;;;;;;;;19.80;18.80;;;;;7.68;57.64;101401.28;5050537;28;8981;-62
2022/03/22 01:37:44;;;;;;;;;13.00;12.40;;;;;7.68;57.72;101397.69;5057423;28;8858;-62
2022/03/22 01:40:11;;;;;;;;;15.00;14.60;;;;;7.69;57.75;101394.13;5061029;28;8833;-62
2022/03/22 01:42:39;;;;;;;;;17.60;16.20;;;;;7.71;57.53;101396.72;5075771;28;8840;-62
2022/03/22 01:45:10;;;;;;;;;12.80;12.00;;;;;7.72;57.44;101395.78;5075982;28;8887;-64
2022/03/22 01:47:44;;;;;;;;;10.80;10.40;;;;;7.72;57.25;101393.13;5076135;28;8872;-63
2022/03/22 01:50:11;;;;;;;;;13.40;11.80;;;;;7.70;57.23;101390.53;5071550;28;8924;-63
2022/03/22 01:52:40;;;;;;;;;14.20;12.40;;;;;7.72;57.49;101389.63;5057564;28;8872;-64
2022/03/22 01:55:08;;;;;;;;;12.80;10.00;;;;;7.72;57.42;101388.69;5057814;28;8846;-63
2022/03/22 01:57:36;;;;;;;;;12.20;10.40;;;;;7.72;57.58;101389.63;5057737;28;8823;-63
2022/03/22 02:00:03;;;;;;;;;12.20;12.00;;;;;7.69;57.07;101387.97;5059906;28;8843;-63
2022/03/22 02:08:01;;;;;;;;;13.40;13.00;;;;;7.79;56.63;101379.53;5059076;28;8853;-62
2022/03/22 02:10:29;;;;;;;;;13.00;10.00;;;;;7.82;57.13;101382.03;5069664;28;8826;-63
2022/03/22 02:12:57;;;;;;;;;16.60;12.40;;;;;7.90;56.76;101371.94;5057178;28;8857;-63
2022/03/22 02:15:25;;;;;;;;;11.40;10.40;;;;;7.95;56.52;101379.69;5057338;28;8912;-62
2022/03/22 02:17:53;;;;;;;;;14.80;12.00;;;;;7.95;56.38;101387.63;5057652;28;8856;-63
2022/03/22 02:20:21;;;;;;;;;10.80;10.80;;;;;7.90;56.71;101377.25;5062705;28;8851;-63
2022/03/22 02:22:48;;;;;;;;;12.80;10.40;;;;;7.81;57.04;101376.78;5077485;28;8847;-63
2022/03/22 02:25:16;;;;;;;;;16.80;14.60;;;;;7.69;57.33;101375.56;5077030;28;8974;-63
2022/03/22 02:27:44;;;;;;;;;12.60;11.60;;;;;7.60;57.03;101376.91;5076946;28;8926;-63
2022/03/22 02:30:13;;;;;;;;;13.60;12.60;;;;;7.51;57.60;101372.88;5071543;28;8822;-63
2022/03/22 02:32:40;;;;;;;;;9.00;8.60;;;;;7.41;57.26;101382.16;5057001;28;8839;-63
2022/03/22 02:35:08;;;;;;;;;12.00;10.40;;;;;7.33;58.15;101376.34;5056814;28;8861;-62
2022/03/22 02:37:36;;;;;;;;;15.40;12.60;;;;;7.26;57.64;101376.66;5056647;28;8819;-62
2022/03/22 02:40:04;;;;;;;;;10.00;7.00;;;;;7.19;57.85;101381.38;5060473;28;8929;-62
2022/03/22 02:42:32;;;;;;;;;15.20;14.00;;;;;7.14;58.27;101385.16;5077150;28;8835;-63
2022/03/22 02:44:59;;;;;;;;;17.20;15.40;;;;;7.10;58.60;101381.75;5077090;28;8879;-62
2022/03/22 02:47:27;;;;;;;;;10.00;9.00;;;;;7.08;58.29;101382.75;5076590;28;8849;-63
2022/03/22 02:49:55;;;;;;;;;14.80;12.20;;;;;7.05;58.35;101393.47;5074255;28;8988;-62
2022/03/22 02:52:23;;;;;;;;;12.20;12.20;;;;;7.00;58.41;101384.88;5056929;28;9528;-63
2022/03/22 02:54:50;;;;;;;;;16.80;15.60;;;;;6.95;58.36;101381.53;5056857;28;8856;-63
2022/03/22 02:57:18;;;;;;;;;6.60;6.60;;;;;6.90;58.46;101386.19;5056597;28;8842;-62
2022/03/22 02:59:46;;;;;;;;;18.00;16.00;;;;;6.86;58.51;101387.22;5056975;28;8939;-62
2022/03/22 03:02:14;;;;;;;;;17.80;15.00;;;;;6.81;58.98;101386.56;5076573;28;8829;-62
2022/03/22 03:04:42;;;;;;;;;15.80;13.80;;;;;6.78;58.81;101384.91;5076390;28;8832;-62
2022/03/22 03:07:10;;;;;;;;;15.00;12.60;;;;;6.78;58.23;101390.19;5076424;28;8832;-62
2022/03/22 03:09:38;;;;;;;;;12.20;10.40;;;;;6.77;58.46;101388.47;5075592;28;8825;-62
2022/03/22 03:12:06;;;;;;;;;14.20;13.80;;;;;6.80;58.44;101392.75;5055541;28;8854;-63
2022/03/22 03:14:40;;;;;;;;;19.40;15.20;;;;;6.80;58.17;101384.81;5056352;28;8878;-62
2022/03/22 03:17:08;;;;;;;;;11.20;10.00;;;;;6.80;58.43;101384.81;5056219;28;8947;-66
2022/03/22 03:19:35;;;;;;;;;15.00;12.00;;;;;6.82;58.23;101386.47;5056250;28;8919;-63
2022/03/22 03:22:04;;;;;;;;;14.40;13.40;;;;;6.86;58.40;101392.50;5075218;28;8820;-63
2022/03/22 03:24:31;;;;;;;;;13.80;12.60;;;;;6.86;57.97;101392.50;5076182;28;9494;-63
2022/03/22 03:26:59;;;;;;;;;15.40;14.60;;;;;6.86;58.19;101393.38;5075995;28;8844;-62
2022/03/22 03:29:27;;;;;;;;;12.60;12.00;;;;;6.84;58.31;101392.56;5075829;28;8840;-62
2022/03/22 03:31:55;;;;;;;;;8.80;7.40;;;;;6.81;58.12;101389.22;5057650;28;9598;-63
2022/03/22 03:34:23;;;;;;;;;15.00;13.20;;;;;6.77;57.99;101398.19;5055825;28;8850;-63
2022/03/22 03:36:50;;;;;;;;;17.20;15.80;;;;;6.72;58.56;101387.78;5055862;28;8834;-63
2022/03/22 03:39:18;;;;;;;;;14.20;13.00;;;;;6.69;58.24;101389.69;5055879;28;8850;-63
2022/03/22 03:41:57;;;;;;;;;12.20;10.80;;;;;6.65;58.33;101388.09;5071837;28;8832;-62
2022/03/22 03:47:11;;;;;;;;;9.20;9.20;;;;;6.57;58.43;101395.47;5055157;28;8869;-62
2022/03/22 03:49:39;;;;;;;;;12.40;11.60;;;;;6.53;58.46;101392.09;5055294;28;8969;-62
2022/03/22 03:52:07;;;;;;;;;7.80;7.80;;;;;6.50;58.98;101394.88;5056003;28;8838;-63
2022/03/22 03:54:35;;;;;;;;;7.20;5.20;;;;;6.48;58.76;101395.84;5055462;28;8860;-62
2022/03/22 03:57:02;;;;;;;;;11.80;9.80;;;;;6.44;58.33;101400.41;5065324;28;8832;-63
2022/03/22 03:59:30;;;;;;;;;12.80;12.00;;;;;6.43;58.79;101390.75;5075830;28;8870;-62
2022/03/22 04:01:58;;;;;;;;;11.20;10.80;;;;;6.43;58.67;101403.97;5075665;28;8848;-62
2022/03/22 04:04:26;;;;;;;;;12.80;10.20;;;;;6.42;58.77;101391.66;5075405;28;8919;-62
2022/03/22 04:06:53;;;;;;;;;14.40;12.40;;;;;6.40;58.79;101395.28;5066666;28;8850;-62
2022/03/22 04:09:21;;;;;;;;;12.60;11.00;;;;;6.38;58.17;101400.63;5055152;28;8889;-62
2022/03/22 04:11:49;;;;;;;;;13.40;12.40;;;;;6.37;58.13;101400.72;5054483;28;8830;-63
2022/03/22 04:14:17;;;;;;;;;12.40;12.00;;;;;6.33;58.89;101401.75;5055355;28;8900;-63
2022/03/22 04:16:45;;;;;;;;;12.80;12.20;;;;;6.31;58.45;101408.88;5057092;28;8854;-61
2022/03/22 04:19:13;;;;;;;;;9.80;9.40;;;;;6.27;58.46;101405.50;5061387;28;8825;-62
2022/03/22 04:21:41;;;;;;;;;12.60;11.20;;;;;6.24;58.78;101402.97;5073400;28;9024;-62
2022/03/22 04:24:09;;;;;;;;;8.60;6.80;;;;;6.24;58.62;101407.41;5077490;28;8836;-62
2022/03/22 04:26:37;;;;;;;;;15.20;13.80;;;;;6.18;58.95;101412.91;5078095;28;8844;-62
2022/03/22 04:34:36;;;;;;;;;16.60;14.20;;;;;5.91;59.05;101411.31;5059179;28;8858;-63
2022/03/22 04:37:03;;;;;;;;;9.00;6.60;;;;;5.85;59.15;101409.75;5059257;28;8852;-62
2022/03/22 04:39:31;;;;;;;;;12.00;9.60;;;;;5.83;59.18;101416.00;5064511;28;8951;-63
2022/03/22 04:41:59;;;;;;;;;16.40;16.00;;;;;5.80;59.40;101414.38;5078687;28;8855;-63
2022/03/22 04:44:28;;;;;;;;;19.40;15.20;;;;;5.82;59.04;101415.16;5076832;28;8860;-66
2022/03/22 04:46:56;;;;;;;;;10.20;9.20;;;;;5.83;59.38;101411.59;5077910;28;8826;-62
2022/03/22 04:49:24;;;;;;;;;14.60;14.20;;;;;5.84;59.33;101412.47;5073849;28;8823;-63
2022/03/22 04:57:22;;;;;;;;;10.00;10.00;;;;;5.93;59.25;101420.06;5058799;28;8835;-62
2022/03/22 04:59:50;;;;;;;;;14.00;12.60;;;;;5.94;58.78;101424.41;5065714;28;8847;-63
2022/03/22 05:02:18;;;;;;;;;15.20;11.60;;;;;5.96;58.61;101419.94;5077991;28;8862;-62
2022/03/22 05:04:46;;;;;;;;;16.40;14.20;;;;;5.96;58.90;101423.44;5076419;28;8824;-67
2022/03/22 05:07:14;;;;;;;;;15.20;13.40;;;;;5.92;58.98;101426.25;5078112;28;8836;-62
2022/03/22 05:09:42;;;;;;;;;17.20;15.20;;;;;5.87;59.32;101433.50;5071513;28;8831;-64
2022/03/22 05:12:13;;;;;;;;;14.40;8.40;;;;;5.87;59.21;101438.78;5058054;28;8860;-62
2022/03/22 05:14:41;;;;;;;;;13.80;12.60;;;;;5.87;58.87;101429.09;5057683;28;8889;-63
2022/03/22 05:17:11;;;;;;;;;12.00;11.60;;;;;5.90;59.02;101438.66;5057238;28;8842;-63
2022/03/22 05:19:39;;;;;;;;;10.80;9.40;;;;;5.85;59.47;101446.75;5062638;28;8966;-67
2022/03/22 05:22:07;;;;;;;;;12.80;12.60;;;;;5.79;58.79;101446.09;5076653;28;8858;-63
2022/03/22 05:24:34;;;;;;;;;11.40;10.20;;;;;5.74;58.97;101448.03;5077050;28;8978;-66
2022/03/22 05:27:02;;;;;;;;;13.60;12.60;;;;;5.69;59.50;101450.00;5077567;28;8966;-62
2022/03/22 05:29:31;;;;;;;;;12.40;11.60;;;;;5.68;59.46;101448.28;5072390;28;9739;-63
2022/03/22 05:32:00;;;;;;;;;13.80;12.80;;;;;5.67;59.36;101450.03;5057747;28;8842;-63
2022/03/22 05:34:28;;;;;;;;;13.00;10.00;;;;;5.66;59.62;101447.44;5056961;28;8862;-63
2022/03/22 05:36:55;;;;;;;;;12.60;10.80;;;;;5.66;59.23;101455.38;5057646;28;8995;-62
2022/03/22 05:39:23;;;;;;;;;13.20;10.00;;;;;5.67;59.48;101457.09;5060217;28;8828;-62
2022/03/22 05:41:51;;;;;;;;;8.60;8.00;;;;;5.67;58.85;101462.38;5077195;28;8852;-65
2022/03/22 05:44:20;;;;;;;;;13.60;12.00;;;;;5.65;58.62;101454.53;5064017;28;8981;-66
2022/03/22 05:46:48;;;;;;;;;16.20;13.00;;;;;5.65;59.31;101459.81;5057558;28;8868;-62
2022/03/22 05:49:15;;;;;;;;;12.80;12.80;;;;;5.65;59.20;101465.09;5060618;28;8860;-64
2022/03/22 05:51:44;;;;;;;;;13.20;11.80;;;;;5.68;59.38;101464.97;5075582;28;9925;-62
2022/03/22 05:54:12;;;;;;;;;18.60;15.80;;;;;5.72;58.71;101463.97;5076325;28;8852;-63
2022/03/22 05:56:40;;;;;;;;;13.80;12.60;;;;;5.79;58.52;101472.53;5077002;28;8844;-62
2022/03/22 05:59:07;;;;;;;;;16.80;15.00;;;;;5.85;58.81;101467.91;5074698;28;8836;-62
2022/03/22 06:01:36;;;;;;;;;9.80;9.40;;;;;5.87;58.28;101470.50;5056812;28;8842;-63
2022/03/22 06:04:04;;;;;;;;;14.20;12.00;;;;;5.87;58.53;101465.22;5059045;28;8844;-62
2022/03/22 06:06:32;;;;;;;;;13.80;13.00;;;;;5.86;58.62;101464.34;5075330;28;8958;-62
2022/03/22 06:08:59;;;;;;;;;13.80;12.40;;;;;5.93;58.35;101468.47;5076381;28;9756;-62
2022/03/22 06:11:27;;;;;;;;;12.40;11.20;;;;;6.02;58.16;101465.53;5076556;28;8848;-63
2022/03/22 06:13:55;;;;;;;;;14.20;12.20;;;;;6.10;58.47;101475.81;5076317;28;8852;-62
2022/03/22 06:16:22;;;;;;;;;6.60;6.20;;;;;6.18;57.90;101471.09;5075731;28;8854;-62
2022/03/22 06:18:50;;;;;;;;;16.00;13.40;;;;;6.25;57.59;101469.94;5063112;28;8838;-62
2022/03/22 06:21:22;;;;;;;;;12.80;12.20;;;;;6.35;57.64;101473.97;5056656;28;8969;-63
2022/03/22 06:23:50;;;;;;;;;7.80;7.80;;;;;6.39;57.43;101468.53;5055730;28;8846;-62
2022/03/22 06:26:18;;;;;;;;;15.00;12.80;;;;;6.38;57.58;101480.00;5055046;28;8981;-62
2022/03/22 06:28:45;;;;;;;;;21.00;18.00;;;;;6.31;57.44;101477.66;5054609;28;8854;-62
2022/03/22 06:31:13;;;;;;;;;14.60;13.80;;;;;6.25;57.81;101473.47;5054489;28;9584;-64
2022/03/22 06:33:41;;;;;;;;;15.00;13.80;;;;;6.26;57.86;101476.97;5053003;28;8886;-62
2022/03/22 06:36:09;;;;;;;;;11.60;11.20;;;;;6.27;58.23;101479.56;5053258;28;8854;-62
2022/03/22 06:38:37;;;;;;;;;11.60;11.00;;;;;6.33;57.91;101484.63;5053774;28;8854;-63
2022/03/22 06:41:05;;;;;;;;;10.80;10.00;;;;;6.41;57.59;101484.31;5052076;28;8873;-62
2022/03/22 06:43:32;;;;;;;;;10.40;10.00;;;;;6.54;57.68;101488.22;5051468;28;8869;-62
2022/03/22 06:46:00;;;;;;;;;12.60;12.60;;;;;6.68;57.11;101483.25;5049405;28;8866;-62
2022/03/22 06:48:28;;;;;;;;;8.20;7.40;;;;;6.80;57.19;101483.63;5050664;28;8838;-63
2022/03/22 06:50:56;;;;;;;;;15.40;12.60;;;;;6.92;56.90;101483.16;5051978;28;8858;-62
2022/03/22 06:53:23;;;;;;;;;12.80;11.00;;;;;7.03;56.72;101486.22;5051570;28;9257;-63
2022/03/22 06:55:52;;;;;;;;;13.40;13.00;;;;;7.16;56.55;101483.94;5051295;28;8873;-62
2022/03/22 06:58:22;;;;;;;;;14.60;12.60;;;;;7.28;56.65;101486.09;5051365;28;8866;-63
2022/03/22 07:00:49;;;;;;;;;15.00;14.20;;;;;7.43;56.15;101486.28;5050312;28;8850;-62
2022/03/22 07:03:18;;;;;;;;;14.40;13.80;;;;;7.56;56.19;101484.84;5050622;28;8868;-62
2022/03/22 07:05:46;;;;;;;;;15.40;13.80;;;;;7.69;55.79;101489.56;5050425;28;8834;-62
2022/03/22 07:08:14;;;;;;;;;12.00;10.40;;;;;7.85;55.28;101480.00;5051568;28;8864;-62
2022/03/22 07:11:47;;;;;;;;;22.40;21.40;;;;;7.99;55.46;101488.22;5051543;28;8844;-62
2022/03/22 07:13:32;;;;;;;;;10.60;9.60;;;;;8.18;55.05;101488.25;5050305;28;9004;-62
2022/03/22 07:16:01;;;;;;;;;20.20;16.40;;;;;8.32;54.75;101484.09;5051883;28;8846;-62
2022/03/22 07:18:29;;;;;;;;;20.00;18.60;;;;;8.47;54.62;101487.81;5051926;28;8830;-62
2022/03/22 07:20:59;;;;;;;;;14.00;12.80;;;;;8.62;54.49;101487.13;5050642;28;8834;-63
2022/03/22 07:23:27;;;;;;;;;22.40;21.40;;;;;8.76;54.16;101488.19;5050166;28;8926;-62
2022/03/22 07:25:55;;;;;;;;;21.80;18.80;;;;;8.91;54.04;101479.50;5049432;28;8895;-63
2022/03/22 07:28:23;;;;;;;;;21.80;21.00;;;;;9.07;53.85;101487.56;5047844;28;8838;-63
2022/03/22 07:30:50;;;;;;;;;18.40;16.80;;;;;9.27;53.31;101479.50;5049467;28;8838;-63
2022/03/22 07:33:18;;;;;;;;;13.80;12.60;;;;;9.46;53.21;101486.47;5050524;28;8985;-63
2022/03/22 07:35:46;;;;;;;;;18.40;16.40;;;;;9.67;52.81;101488.03;5051848;28;8831;-63
2022/03/22 07:38:14;;;;;;;;;21.80;18.40;;;;;9.88;52.08;101486.91;5052000;28;8876;-64
2022/03/22 07:40:42;;;;;;;;;22.00;20.60;;;;;10.07;52.08;101478.84;5051092;28;8901;-63
2022/03/22 07:43:10;;;;;;;;;21.20;18.60;;;;;10.27;51.87;101481.31;5046513;28;8858;-63
2022/03/22 07:45:37;;;;;;;;;16.80;15.20;;;;;10.49;51.18;101479.22;5048008;28;8889;-62
2022/03/22 07:48:05;;;;;;;;;18.00;15.80;;;;;10.71;51.08;101482.41;5049492;28;8970;-62
2022/03/22 07:53:19;;;;;;;;;15.00;15.00;;;;;11.16;50.86;101480.66;5048689;28;8850;-63
2022/03/22 07:55:47;;;;;;;;;17.25;13.00;;;;;11.38;50.58;101475.81;5049661;28;8838;-62
2022/03/22 07:58:15;;;;;;;;;15.50;14.50;;;;;11.62;50.57;101474.44;5050935;28;9603;-63
2022/03/22 08:00:43;;;;;;;;;12.00;10.50;;;;;11.87;49.43;101476.47;5050430;28;8857;-63
2022/03/22 08:03:12;;;;;;;;;17.50;15.25;;;;;12.11;49.68;101478.50;5050061;28;8869;-63
2022/03/22 08:05:40;;;;;;;;;10.00;8.50;;;;;12.31;49.27;101470.97;5049407;28;8850;-62
2022/03/22 08:08:08;;;;;;;;;13.00;11.50;;;;;12.50;49.04;101471.53;5050286;28;8866;-62
2022/03/22 08:10:56;;;;;;;;;17.00;16.00;;;;;12.73;48.53;101470.06;5049595;28;8862;-62
2022/03/22 08:13:24;;;;;;;;;16.00;14.50;;;;;12.91;48.57;101474.25;5046530;28;8889;-63
2022/03/22 08:15:51;;;;;;;;;18.00;16.50;;;;;13.10;48.17;101466.75;5030744;28;8873;-63
2022/03/22 08:18:19;;;;;;;;;15.50;13.00;;;;;13.30;48.11;101469.81;5031140;28;8991;-62
2022/03/22 08:20:47;;;;;;;;;22.25;20.75;;;;;13.49;48.06;101472.13;5030317;28;8852;-62
2022/03/22 08:23:15;;;;;;;;;14.00;13.00;;;;;13.61;47.36;101464.16;5030010;28;8893;-64
2022/03/22 08:25:43;;;;;;;;;12.00;11.50;;;;;13.78;47.13;101465.66;5030494;28;8886;-62
2022/03/22 08:28:11;;;;;;;;;19.50;16.00;;;;;13.94;47.50;101469.00;5030467;28;8845;-63
2022/03/22 08:30:39;;;;;;;;;19.50;17.00;;;;;14.11;47.26;101469.56;5030223;28;8860;-63
2022/03/22 08:33:07;;;;;;;;;19.00;18.50;;;;;14.30;46.41;101461.13;5029441;28;8963;-62
2022/03/22 08:35:35;;;;;;;;;19.00;18.50;;;;;14.41;46.23;101463.91;5028992;28;8876;-63
2022/03/22 08:38:03;;;;;;;;;21.75;19.00;;;;;14.52;46.44;101459.50;5029226;28;8844;-63
2022/03/22 08:40:31;;;;;;;;;18.50;17.00;;;;;14.64;46.05;101458.59;5028899;28;8840;-63
2022/03/22 08:42:58;;;;;;;;;15.50;14.50;;;;;14.77;45.67;101450.50;5027869;28;8950;-62
2022/03/22 08:45:27;;;;;;;;;15.50;14.25;;;;;14.89;45.78;101453.19;5029224;28;8836;-63
2022/03/22 08:47:55;;;;;;;;;18.75;17.00;;;;;15.03;45.77;101449.47;5030427;28;8844;-63
2022/03/22 08:50:25;;;;;;;;;15.50;15.25;;;;;15.29;45.42;101441.19;5030421;28;8987;-63
2022/03/22 08:52:54;;;;;;;;;13.50;12.75;;;;;15.56;45.00;101444.50;5028801;28;8866;-63
2022/03/22 08:55:23;;;;;;;;;15.75;15.25;;;;;15.84;44.66;101444.09;5029272;28;9603;-62
2022/03/22 08:57:50;;;;;;;;;13.75;13.75;;;;;16.19;44.30;101440.34;5029525;28;8852;-63
2022/03/22 09:00:19;;;;;;;;;15.00;13.00;;;;;16.63;44.02;101435.00;5028438;28;8859;-63
2022/03/22 09:02:47;;;;;;;;;16.50;16.00;;;;;17.09;42.98;101443.72;5028685;28;8916;-62
2022/03/22 09:08:05;;;;;;;;;19.00;16.00;;;;;17.90;42.54;101435.94;5027388;28;8864;-62
2022/03/22 09:10:34;;;;;;;;;21.00;20.00;;;;;18.28;41.67;101437.00;5029184;28;8860;-62
2022/03/22 09:13:02;;;;;;;;;8.00;6.50;;;;;18.60;41.52;101434.19;5031147;28;8870;-62
2022/03/22 09:15:29;;;;;;;;;17.50;16.00;;;;;18.86;40.87;101433.56;5030793;28;9019;-63
2022/03/22 09:17:57;;;;;;;;;23.75;21.25;;;;;19.16;41.00;101436.19;5032069;28;8962;-63
2022/03/22 09:20:25;;;;;;;;;24.00;22.00;;;;;19.40;40.83;101433.94;5031544;28;8856;-62
2022/03/22 09:22:53;;;;;;;;;18.25;17.00;;;;;19.56;40.37;101428.81;5032994;28;8867;-63
2022/03/22 09:25:22;;;;;;;;;24.50;23.00;;;;;19.59;40.31;101427.69;5031050;28;9020;-64
2022/03/22 09:27:51;;;;;;;;;13.50;10.50;;;;;19.60;40.43;101432.09;5031068;28;8874;-63
2022/03/22 09:30:18;;;;;;;;;24.00;23.00;;;;;19.59;40.84;101431.25;5031238;28;8991;-63
2022/03/22 09:32:46;;;;;;;;;24.50;23.50;;;;;19.46;40.53;101438.78;5032254;28;8848;-62
2022/03/22 09:35:14;;;;;;;;;26.50;21.50;;;;;19.30;41.15;101429.53;5031796;28;8853;-62
2022/03/22 09:37:43;;;;;;;;;26.00;24.00;;;;;19.12;41.38;101428.50;5033271;28;8860;-63
2022/03/22 09:40:11;;;;;;;;;27.00;21.25;;;;;18.97;41.10;101424.50;5033601;28;8844;-62
2022/03/22 09:42:42;;;;;;;;;25.00;22.75;;;;;18.84;42.06;101427.44;5034901;28;8852;-62
2022/03/22 09:45:10;;;;;;;;;19.00;18.00;;;;;18.72;41.70;101428.53;5024779;28;8856;-62
2022/03/22 09:47:38;;;;;;;;;22.75;22.75;;;;;18.62;42.02;101429.50;5033261;28;8836;-62
2022/03/22 09:50:06;;;;;;;;;17.25;16.25;;;;;18.54;41.70;101424.81;5032583;28;9537;-62
2022/03/22 09:52:33;;;;;;;;;20.75;20.00;;;;;18.50;41.42;101434.16;5033652;28;8844;-62
2022/03/22 09:55:00;;;;;;;;;20.50;19.50;;;;;18.52;41.69;101429.47;5032532;28;9014;-62
2022/03/22 09:57:29;;;;;;;;;20.00;18.50;;;;;18.55;41.95;101418.41;5032453;28;8891;-62
2022/03/22 09:59:56;;;;;;;;;20.00;19.00;;;;;18.65;41.07;101424.69;5031063;28;8852;-62
2022/03/22 10:02:24;;;;;;;;;23.50;22.50;;;;;18.84;40.95;101424.75;5031122;28;8975;-62
2022/03/22 10:04:52;;;;;;;;;22.25;19.50;;;;;19.23;39.97;101418.44;5032232;28;8953;-62
2022/03/22 10:07:21;;;;;;;;;24.50;21.50;;;;;19.89;39.17;101414.81;5031012;28;8883;-63
2022/03/22 10:09:49;;;;;;;;;18.50;15.25;;;;;20.73;37.58;101411.13;5031404;28;8856;-62
2022/03/22 10:12:17;;;;;;;;;28.75;25.00;;;;;21.69;36.67;101399.47;5031024;28;8863;-62
2022/03/22 10:14:45;;;;;;;;;19.20;17.00;;;;;22.61;35.27;101402.28;5058340;28;9528;-62
2022/03/22 10:17:12;;;;;;;;;26.00;22.60;;;;;23.60;34.44;101401.34;5071094;28;9227;-63
2022/03/22 10:19:41;;;;;;;;;19.20;18.20;;;;;24.39;33.42;101391.38;5069430;28;8891;-63
2022/03/22 10:22:10;;;;;;;;;22.00;21.00;;;;;25.14;32.45;101398.88;5069235;28;8876;-63
2022/03/22 10:24:37;;;;;;;;;18.80;17.40;;;;;25.84;32.13;101385.72;5069278;28;8877;-62
2022/03/22 10:27:05;;;;;;;;;18.80;18.00;;;;;26.41;31.40;101378.63;5070344;28;8934;-63
2022/03/22 10:29:34;;;;;;;;;21.80;20.00;;;;;26.97;31.16;101380.69;5070966;28;8849;-63
2022/03/22 10:32:02;;;;;;;;;19.40;18.80;;;;;27.47;30.90;101377.88;5071657;28;9558;-62
2022/03/22 10:34:30;;;;;;;;;18.40;17.20;;;;;27.84;29.96;101380.34;5072023;28;8849;-63
2022/03/22 10:36:58;;;;;;;;;18.60;17.20;;;;;28.10;30.47;101374.22;5071890;28;8877;-62
2022/03/22 10:39:25;;;;;;;;;17.80;16.80;;;;;28.37;29.69;101371.47;5071550;28;8969;-63
2022/03/22 10:41:53;;;;;;;;;21.00;19.80;;;;;28.62;29.62;101375.44;5070344;28;8837;-63
2022/03/22 10:44:23;;;;;;;;;17.20;16.60;;;;;29.04;29.01;101364.22;5071078;28;8846;-63
2022/03/22 10:46:51;;;;;;;;;18.40;16.40;;;;;29.28;29.49;101365.53;5070034;28;8942;-63
2022/03/22 10:49:19;;;;;;;;;16.60;14.40;;;;;29.59;28.76;101369.41;5070589;28;8942;-63
2022/03/22 10:52:07;;;;;;;;;18.60;17.40;;;;;29.91;28.10;101363.09;5072447;28;9535;-63
2022/03/22 10:54:35;;;;;;;;;20.00;17.40;;;;;30.20;28.33;101361.78;5072678;28;9309;-62
2022/03/22 10:57:02;;;;;;;;;19.60;17.80;;;;;30.25;28.02;101365.59;5071780;28;8830;-63
2022/03/22 10:59:30;;;;;;;;;22.40;19.00;;;;;30.24;27.94;101363.06;5072699;28;8817;-63
2022/03/22 11:01:58;;;;;;;;;27.00;22.60;;;;;30.29;28.32;101361.34;5070348;28;9549;-62
2022/03/22 11:04:27;;;;;;;;;20.40;17.60;;;;;30.18;27.72;101361.16;5069713;28;9165;-62
2022/03/22 11:07:00;;;;;;;;;18.40;17.60;;;;;30.24;27.55;101352.06;5071267;28;8841;-62
2022/03/22 11:09:28;;;;;;;;;24.80;22.20;;;;;30.35;28.15;101349.50;5070844;28;8964;-64
2022/03/22 11:11:55;;;;;;;;;16.00;14.60;;;;;30.45;27.95;101351.78;5069571;28;8851;-64
2022/03/22 11:14:23;;;;;;;;;23.00;19.60;;;;;30.52;27.57;101346.03;5070390;28;8888;-62
2022/03/22 11:16:51;;;;;;;;;21.20;19.20;;;;;30.72;27.68;101345.97;5071001;28;8834;-62
2022/03/22 11:19:21;;;;;;;;;16.80;15.00;;;;;30.78;27.62;101334.09;5070176;28;8830;-63
2022/03/22 11:21:52;;;;;;;;;15.60;13.60;;;;;30.80;26.58;101335.59;5070109;28;8832;-62
2022/03/22 11:24:19;;;;;;;;;15.00;11.00;;;;;30.85;27.11;101340.44;5070674;28;8894;-62
2022/03/22 11:26:47;;;;;;;;;16.20;14.80;;;;;31.02;26.51;101336.94;5071700;28;8842;-62
2022/03/22 11:29:15;;;;;;;;;9.80;9.20;;;;;31.29;26.56;101337.66;5071998;28;8853;-63
2022/03/22 11:34:08;;;;;;;;;12.20;11.00;;;;;31.46;26.40;101334.13;5071166;28;8850;-63
2022/03/22 11:34:32;;;;;;;;;20.80;17.20;;;;;31.77;25.83;101325.00;5071931;28;8842;-63
2022/03/22 11:37:00;;;;;;;;;19.00;17.20;;;;;32.07;25.79;101332.34;5069696;28;8838;-63
2022/03/22 11:42:17;;;;;;;;;12.00;9.60;;;;;32.26;25.79;101319.44;5069469;28;8851;-60
2022/03/22 11:44:45;;;;;;;;;12.80;12.40;;;;;32.33;25.31;101320.22;5071198;28;8853;-60
2022/03/22 11:47:15;;;;;;;;;21.20;19.40;;;;;32.31;24.76;101316.84;5069354;28;9480;-60
2022/03/22 11:49:43;;;;;;;;;16.00;15.60;;;;;32.43;24.59;101313.09;5067660;28;8862;-60
2022/03/22 11:52:11;;;;;;;;;20.20;18.00;;;;;32.60;24.26;101313.28;5068782;28;8987;-62
2022/03/22 11:54:39;;;;;;;;;15.40;13.40;;;;;32.71;24.59;101313.34;5069880;28;8837;-62
2022/03/22 11:57:07;;;;;;;;;16.40;14.40;;;;;32.82;24.19;101315.38;5072452;28;8854;-62